Time;durP1;ratioP1;P1;durP2;ratioP2;P2;SDS_P1;SDS_P2;PMS_P1;PMS_P2;Temp;Humidity;BMP_temperature;BMP_pressure;BME280_temperature;BME280_humidity;BME280_pressure;Samples;Min_cycle;Max_cycle;Signal;HPM_P1;HPM_P2
2022/09/02 00:02:35;;;;;;;0.55;0.10;;;;;;;14.38;100.00;101742.47;10310904;28;20058;-83
2022/09/02 00:07:36;;;;;;;0.00;0.00;;;;;;;14.34;100.00;101731.16;10304178;28;20513;-83
2022/09/02 00:12:38;;;;;;;0.30;0.10;;;;;;;14.09;100.00;101733.16;10331048;28;20454;-83
2022/09/02 00:17:40;;;;;;;0.00;0.00;;;;;;;14.06;100.00;101730.50;10302305;28;20482;-83
2022/09/02 00:22:43;;;;;;;0.05;0.03;;;;;;;14.06;100.00;101729.59;10302622;28;20050;-82
2022/09/02 00:27:45;;;;;;;0.10;0.10;;;;;;;13.96;100.00;101725.91;10329512;28;20058;-82
2022/09/02 00:32:47;;;;;;;0.10;0.10;;;;;;;13.98;100.00;101720.75;10313373;28;20101;-83
2022/09/02 00:37:49;;;;;;;0.00;0.00;;;;;;;13.80;100.00;101722.06;10337036;28;20065;-83
2022/09/02 00:42:52;;;;;;;0.70;0.20;;;;;;;13.53;100.00;101727.38;10315776;28;20523;-83
2022/09/02 00:47:54;;;;;;;0.00;0.00;;;;;;;13.63;100.00;101730.25;10333787;28;20457;-83
2022/09/02 00:53:07;;;;;;;0.00;0.00;;;;;;;13.46;100.00;101721.16;10310649;28;20055;-83
2022/09/02 00:58:15;;;;;;;0.00;0.00;;;;;;;13.54;100.00;101711.88;10309026;28;20665;-83
2022/09/02 01:03:20;;;;;;;0.00;0.00;;;;;;;13.45;100.00;101711.63;10320070;28;20058;-83
2022/09/02 01:08:28;;;;;;;0.10;0.10;;;;;;;13.41;100.00;101707.22;10291643;28;20054;-83
2022/09/02 01:13:36;;;;;;;0.00;0.00;;;;;;;13.28;100.00;101717.22;10336034;28;20049;-83
2022/09/02 01:18:48;;;;;;;0.10;0.10;;;;;;;13.32;100.00;101706.09;10323610;28;20089;-83
2022/09/02 01:23:51;;;;;;;0.17;0.00;;;;;;;13.26;100.00;101712.81;10303816;28;20061;-84
2022/09/02 01:29:03;;;;;;;0.00;0.00;;;;;;;13.28;100.00;101712.03;10314529;28;20046;-83
2022/09/02 01:34:05;;;;;;;0.00;0.00;;;;;;;13.14;100.00;101709.06;10310506;28;20054;-83
2022/09/02 01:39:10;;;;;;;0.00;0.00;;;;;;;13.23;100.00;101711.00;10335822;28;20477;-83
2022/09/02 01:44:15;;;;;;;0.30;0.10;;;;;;;13.17;100.00;101708.25;10324331;28;20050;-83
2022/09/02 01:49:20;;;;;;;0.10;0.10;;;;;;;13.31;100.00;101699.16;10343335;28;20046;-84
2022/09/02 01:54:22;;;;;;;0.08;0.08;;;;;;;13.09;100.00;101700.31;10360551;28;20050;-83
2022/09/02 01:59:25;;;;;;;0.00;0.00;;;;;;;13.20;100.00;101687.66;10338030;28;20046;-83
2022/09/02 02:04:27;;;;;;;0.00;0.00;;;;;;;13.25;100.00;101690.38;10350873;28;20082;-83
2022/09/02 02:09:30;;;;;;;0.00;0.00;;;;;;;13.15;100.00;101690.13;10358212;28;20065;-83
2022/09/02 02:14:33;;;;;;;0.00;0.00;;;;;;;13.21;100.00;101683.34;10351587;28;20085;-83
2022/09/02 02:19:36;;;;;;;0.03;0.00;;;;;;;13.18;100.00;101685.00;10341926;28;20049;-84
2022/09/02 02:24:38;;;;;;;0.15;0.15;;;;;;;12.97;100.00;101693.06;10342617;28;20046;-83
2022/09/02 02:29:39;;;;;;;0.00;0.00;;;;;;;13.21;100.00;101679.06;10320551;28;20046;-83
2022/09/02 02:34:42;;;;;;;0.00;0.00;;;;;;;13.03;100.00;101684.56;10347840;28;20042;-84
2022/09/02 02:39:44;;;;;;;0.00;0.00;;;;;;;12.85;100.00;101680.66;10337471;28;20501;-84
2022/09/02 02:44:46;;;;;;;0.10;0.00;;;;;;;12.98;100.00;101686.16;10320118;28;20069;-84
2022/09/02 02:50:09;;;;;;;0.00;0.00;;;;;;;12.54;100.00;101694.38;10318421;28;20061;-83
2022/09/02 02:55:12;;;;;;;0.00;0.00;;;;;;;12.81;100.00;101683.09;10317825;28;20117;-83
2022/09/02 03:00:23;;;;;;;0.85;0.13;;;;;;;12.88;100.00;101685.03;10322016;28;20085;-83
2022/09/02 03:05:27;;;;;;;0.22;0.00;;;;;;;12.99;100.00;101681.03;10319080;28;20435;-83
2022/09/02 03:10:31;;;;;;;0.00;0.00;;;;;;;13.23;100.00;101677.38;10338893;28;20054;-84
2022/09/02 03:15:33;;;;;;;0.00;0.00;;;;;;;12.84;100.00;101678.03;10325863;28;20105;-83
2022/09/02 03:20:35;;;;;;;0.00;0.00;;;;;;;13.06;100.00;101683.81;10323511;28;20061;-83
2022/09/02 03:25:44;;;;;;;0.57;0.32;;;;;;;13.17;100.00;101672.03;10325940;28;20068;-83
2022/09/02 03:30:57;;;;;;;0.20;0.10;;;;;;;13.27;100.00;101674.06;10345986;28;20065;-83
2022/09/02 03:36:00;;;;;;;0.00;0.00;;;;;;;13.43;100.00;101669.31;10344485;28;20501;-83
2022/09/02 03:41:02;;;;;;;0.22;0.15;;;;;;;13.64;100.00;101664.69;10317119;28;20472;-83
2022/09/02 03:46:04;;;;;;;0.20;0.15;;;;;;;13.75;100.00;101662.38;10301350;28;20054;-83
2022/09/02 03:51:06;;;;;;;1.13;0.08;;;;;;;13.82;100.00;101647.00;10316825;28;20050;-83
2022/09/02 03:56:11;;;;;;;0.00;0.00;;;;;;;13.80;100.00;101650.41;10321150;28;20054;-82
2022/09/02 04:01:20;;;;;;;0.00;0.00;;;;;;;13.82;100.00;101653.03;10330249;28;20413;-83
2022/09/02 04:06:24;;;;;;;0.00;0.00;;;;;;;13.83;100.00;101647.00;10318128;28;20077;-83
2022/09/02 04:11:35;;;;;;;0.00;0.00;;;;;;;13.90;100.00;101645.47;10329712;28;20046;-83
2022/09/02 04:16:38;;;;;;;0.00;0.00;;;;;;;14.02;100.00;101644.88;10316654;28;20811;-83
2022/09/02 04:21:42;;;;;;;0.00;0.00;;;;;;;14.06;100.00;101641.50;10316401;28;20120;-83
2022/09/02 04:26:45;;;;;;;1.02;0.05;;;;;;;14.07;100.00;101627.72;10312657;28;20054;-83
2022/09/02 04:31:49;;;;;;;0.00;0.00;;;;;;;14.11;100.00;101625.25;10314896;28;20074;-83
2022/09/02 04:36:52;;;;;;;0.00;0.00;;;;;;;14.07;100.00;101630.31;10315575;28;20050;-83
2022/09/02 04:41:54;;;;;;;0.10;0.10;;;;;;;14.06;100.00;101631.16;10317346;28;20050;-82
2022/09/02 04:46:58;;;;;;;0.00;0.00;;;;;;;14.23;100.00;101629.81;10313877;28;20112;-84
2022/09/02 04:52:00;;;;;;;0.00;0.00;;;;;;;14.17;100.00;101632.28;10316081;28;20096;-84
2022/09/02 04:57:03;;;;;;;0.00;0.00;;;;;;;14.22;100.00;101643.63;10313185;28;20162;-84
2022/09/02 05:02:05;;;;;;;0.00;0.00;;;;;;;14.37;100.00;101637.03;10319543;28;20068;-77
2022/09/02 05:07:08;;;;;;;0.08;0.00;;;;;;;14.42;100.00;101631.09;10309852;28;20085;-76
2022/09/02 05:12:17;;;;;;;0.00;0.00;;;;;;;14.50;100.00;101630.41;10319065;28;20145;-78
2022/09/02 05:17:27;;;;;;;0.00;0.00;;;;;;;14.48;100.00;101627.78;10323472;28;20054;-77
2022/09/02 05:22:28;;;;;;;0.00;0.00;;;;;;;14.49;100.00;101632.09;10341254;28;20046;-76
2022/09/02 05:27:33;;;;;;;0.00;0.00;;;;;;;14.55;100.00;101632.25;10332370;28;20092;-77
2022/09/02 05:32:35;;;;;;;0.00;0.00;;;;;;;14.64;100.00;101633.25;10318709;28;20109;-77
2022/09/02 05:37:39;;;;;;;0.20;0.20;;;;;;;14.69;100.00;101634.28;10332772;28;20426;-77
2022/09/02 05:42:42;;;;;;;0.00;0.00;;;;;;;14.77;100.00;101637.03;10298254;28;20054;-78
2022/09/02 05:47:45;;;;;;;0.00;0.00;;;;;;;14.87;100.00;101633.78;10309779;28;20355;-78
2022/09/02 05:52:51;;;;;;;0.03;0.03;;;;;;;14.88;100.00;101628.63;10316553;28;20055;-77
2022/09/02 05:57:56;;;;;;;0.00;0.00;;;;;;;15.01;100.00;101629.72;10308177;28;20109;-78
2022/09/02 06:02:57;;;;;;;0.10;0.10;;;;;;;15.02;100.00;101628.00;10335023;28;20453;-77
2022/09/02 06:08:05;;;;;;;0.00;0.00;;;;;;;15.11;100.00;101623.00;10318848;28;20081;-77
2022/09/02 06:13:06;;;;;;;0.00;0.00;;;;;;;15.28;100.00;101630.22;10335222;28;20505;-78
2022/09/02 06:18:09;;;;;;;0.00;0.00;;;;;;;15.33;100.00;101625.97;10297104;28;20129;-77
2022/09/02 06:23:16;;;;;;;0.10;0.10;;;;;;;15.58;100.00;101618.63;10315979;28;20097;-78
2022/09/02 06:28:19;;;;;;;0.00;0.00;;;;;;;15.71;100.00;101617.97;10315080;28;20062;-78
2022/09/02 06:33:22;;;;;;;0.00;0.00;;;;;;;15.73;100.00;101628.38;10313108;28;20046;-77
2022/09/02 06:38:25;;;;;;;0.00;0.00;;;;;;;15.85;100.00;101628.63;10319669;28;20050;-78
2022/09/02 06:43:27;;;;;;;0.20;0.10;;;;;;;15.93;100.00;101632.22;10315615;28;20061;-78
2022/09/02 06:49:05;;;;;;;0.10;0.10;;;;;;;16.07;100.00;101627.19;10321007;28;20050;-77
2022/09/02 06:54:13;;;;;;;0.05;0.05;;;;;;;16.28;100.00;101626.66;10311141;28;20086;-78
2022/09/02 06:59:19;;;;;;;0.00;0.00;;;;;;;16.52;100.00;101626.94;10315458;28;20055;-78
2022/09/02 07:09:56;;;;;;;0.20;0.08;;;;;;;16.55;99.47;101617.44;10328575;28;20046;-76
2022/09/02 07:14:59;;;;;;;0.08;0.05;;;;;;;16.66;99.49;101609.78;10322079;28;20058;-77
2022/09/02 07:20:06;;;;;;;0.38;0.30;;;;;;;16.81;100.00;101609.09;10317511;28;20046;-79
2022/09/02 07:25:31;;;;;;;0.10;0.10;;;;;;;16.96;99.78;101608.41;10328483;28;20109;-78
2022/09/02 07:30:33;;;;;;;0.13;0.03;;;;;;;17.09;97.77;101609.41;10314739;28;20043;-78
2022/09/02 07:35:44;;;;;;;0.00;0.00;;;;;;;17.30;97.08;101608.75;10311886;28;20053;-77
2022/09/02 07:40:49;;;;;;;1.13;0.52;;;;;;;17.49;95.34;101606.31;10329334;28;20038;-77
2022/09/02 07:45:59;;;;;;;0.00;0.00;;;;;;;17.88;93.34;101604.88;10314809;28;20056;-78
2022/09/02 07:51:03;;;;;;;0.32;0.22;;;;;;;18.16;91.68;101608.56;10338856;28;20101;-79
2022/09/02 07:56:05;;;;;;;0.00;0.00;;;;;;;18.31;93.26;101599.94;10291375;28;20112;-78
2022/09/02 08:01:08;;;;;;;0.00;0.00;;;;;;;18.53;88.93;101602.63;10302524;28;20073;-77
2022/09/02 08:06:13;;;;;;;0.00;0.00;;;;;;;18.28;85.48;101599.03;10284499;28;20093;-78
2022/09/02 08:11:15;;;;;;;0.20;0.17;;;;;;;18.60;86.84;101593.97;10317583;28;20050;-78
2022/09/02 08:16:17;;;;;;;0.00;0.00;;;;;;;18.92;87.31;101584.50;10336802;28;20058;-79
2022/09/02 08:21:19;;;;;;;0.10;0.10;;;;;;;19.33;87.13;101586.31;10320451;28;20050;-78
2022/09/02 08:26:21;;;;;;;0.10;0.10;;;;;;;19.48;83.29;101588.03;10314791;28;20054;-78
2022/09/02 08:31:24;;;;;;;0.13;0.05;;;;;;;20.84;75.20;101577.22;10367387;28;20070;-78
2022/09/02 08:36:27;;;;;;;0.20;0.20;;;;;;;21.77;63.69;101579.16;10350803;28;20108;-80
2022/09/02 08:41:40;;;;;;;0.20;0.05;;;;;;;21.67;61.53;101580.97;10344089;28;20085;-79
2022/09/02 08:46:42;;;;;;;0.40;0.40;;;;;;;22.33;61.82;101578.50;10306576;28;20410;-79
2022/09/02 08:51:54;;;;;;;0.20;0.10;;;;;;;23.07;56.70;101576.66;10314411;28;20561;-79
2022/09/02 08:57:01;;;;;;;3.72;0.57;;;;;;;22.70;60.02;101564.91;10331150;28;20050;-79
2022/09/02 09:02:29;;;;;;;0.00;0.00;;;;;;;23.14;55.93;101566.00;10310461;28;20050;-79
2022/09/02 09:07:44;;;;;;;0.25;0.05;;;;;;;23.49;56.65;101560.22;10311271;28;20105;-79
2022/09/02 09:13:13;;;;;;;0.22;0.22;;;;;;;23.92;54.17;101559.41;10312474;28;20072;-79
2022/09/02 09:18:17;;;;;;;0.03;0.03;;;;;;;23.41;55.75;101560.34;10332509;28;20050;-79
2022/09/02 09:23:32;;;;;;;0.22;0.20;;;;;;;24.19;54.13;101554.50;10327768;28;20058;-79
2022/09/02 09:28:47;;;;;;;0.10;0.10;;;;;;;24.36;55.48;101541.88;10313018;28;20512;-78
2022/09/02 09:34:10;;;;;;;0.77;0.35;;;;;;;23.91;55.22;101552.41;10291081;28;20054;-79
2022/09/02 09:39:38;;;;;;;0.25;0.25;;;;;;;24.12;51.73;101547.63;10318870;28;20050;-79
2022/09/02 09:44:44;;;;;;;0.10;0.10;;;;;;;23.43;50.85;101546.25;10319902;28;20092;-79
2022/09/02 09:49:48;;;;;;;0.22;0.20;;;;;;;24.80;47.62;101519.84;10318565;28;20054;-79
2022/09/02 09:55:13;;;;;;;1.23;0.40;;;;;;;24.94;50.58;101512.47;10320611;28;20101;-79
2022/09/02 10:00:33;;;;;;;0.20;0.20;;;;;;;25.28;56.33;101506.31;10298701;28;20046;-78
2022/09/02 10:05:39;;;;;;;0.63;0.25;;;;;;;24.61;46.87;101509.69;10319711;28;20141;-79
2022/09/02 10:10:54;;;;;;;0.00;0.00;;;;;;;26.27;51.01;101490.41;10332829;28;20068;-79
2022/09/02 10:16:20;;;;;;;0.00;0.00;;;;;;;26.43;49.24;101492.56;10303594;28;20063;-80
2022/09/02 10:21:25;;;;;;;;;;;;;;;26.17;44.16;101481.03;10339726;28;20088;-78
2022/09/02 10:26:35;;;;;;;0.35;0.35;;;;;;;26.01;46.21;101485.00;10318247;28;19922;-78
2022/09/02 10:31:40;;;;;;;0.00;0.00;;;;;;;25.42;46.48;101486.69;10330495;28;20058;-79
2022/09/02 10:37:07;;;;;;;0.30;0.10;;;;;;;25.57;48.57;101477.47;10332091;28;20053;-79
2022/09/02 10:42:23;;;;;;;0.20;0.20;;;;;;;26.05;44.71;101469.03;10332177;28;20072;-78
2022/09/02 10:47:35;;;;;;;0.15;0.10;;;;;;;26.05;43.64;101460.25;10314219;28;20065;-78
2022/09/02 10:52:37;;;;;;;0.20;0.20;;;;;;;26.82;42.63;101463.16;10330974;28;20457;-79
2022/09/02 10:57:51;;;;;;;0.20;0.17;;;;;;;26.69;41.59;101462.66;10330990;28;20517;-79
2022/09/02 11:03:22;;;;;;;0.15;0.15;;;;;;;26.88;40.72;101460.28;10285855;28;20062;-79
2022/09/02 11:08:38;;;;;;;0.30;0.20;;;;;;;26.88;38.80;101460.28;10332167;28;20073;-79
2022/09/02 11:14:00;;;;;;;0.28;0.10;;;;;;;26.90;37.16;101455.81;10308205;28;20128;-77
2022/09/02 11:19:24;;;;;;;0.00;0.00;;;;;;;27.12;35.82;101455.09;10331752;28;20054;-79
2022/09/02 11:24:38;;;;;;;0.10;0.10;;;;;;;26.57;34.52;101449.84;10309821;28;20058;-78
2022/09/02 11:29:55;;;;;;;0.10;0.10;;;;;;;26.64;35.45;101453.16;10307098;28;20065;-76
2022/09/02 11:35:02;;;;;;;0.17;0.10;;;;;;;26.04;33.88;101443.53;10319045;28;20054;-77
2022/09/02 11:40:17;;;;;;;0.20;0.17;;;;;;;26.06;33.67;101438.22;10338201;28;20109;-79
2022/09/02 11:45:55;;;;;;;0.35;0.03;;;;;;;25.47;35.14;101445.19;10322514;28;20149;-78
2022/09/02 11:51:19;;;;;;;0.10;0.10;;;;;;;26.22;34.87;101428.06;10288286;28;20046;-79
2022/09/02 11:56:30;;;;;;;0.37;0.30;;;;;;;26.94;32.94;101422.22;10299705;28;20058;-78
2022/09/02 12:01:46;;;;;;;0.25;0.13;;;;;;;26.57;31.27;101423.44;10303692;28;20047;-79
2022/09/02 12:07:05;;;;;;;0.00;0.00;;;;;;;26.27;34.93;101413.81;10334113;28;20499;-77
2022/09/02 12:12:35;;;;;;;0.40;0.10;;;;;;;26.00;35.28;101423.41;10314047;28;20516;-79
2022/09/02 12:17:38;;;;;;;0.13;0.10;;;;;;;25.08;36.66;101422.50;10333497;28;20054;-77
2022/09/02 12:22:42;;;;;;;0.10;0.10;;;;;;;24.86;36.10;101415.16;10314802;28;20181;-78
2022/09/02 12:27:43;;;;;;;0.03;0.03;;;;;;;25.11;36.59;101403.09;10316357;28;20054;-75
2022/09/02 12:33:12;;;;;;;0.10;0.08;;;;;;;26.62;36.22;101388.94;10316634;28;20557;-76
2022/09/02 12:38:14;;;;;;;0.30;0.23;;;;;;;26.74;34.35;101391.16;10332786;28;20081;-78
2022/09/02 12:43:25;;;;;;;0.10;0.10;;;;;;;26.46;37.29;101392.09;10331010;28;20060;-78
2022/09/02 12:48:39;;;;;;;0.10;0.10;;;;;;;25.90;36.74;101385.88;10313665;28;20454;-77
2022/09/02 12:53:49;;;;;;;1.85;1.20;;;;;;;25.14;38.77;101389.81;10332784;28;20489;-76
2022/09/02 12:58:54;;;;;;;0.20;0.10;;;;;;;25.44;40.41;101380.22;10335361;28;20477;-75
2022/09/02 13:04:30;;;;;;;0.80;0.40;;;;;;;25.83;36.04;101376.44;10312801;28;20472;-77
2022/09/02 13:09:41;;;;;;;;;;;;;;;26.71;35.91;101372.75;10313225;28;20498;-76
2022/09/02 13:14:48;;;;;;;0.30;0.20;;;;;;;25.69;35.04;101373.34;10331922;28;20340;-77
2022/09/02 13:19:53;;;;;;;0.32;0.22;;;;;;;25.07;35.76;101370.69;10288956;28;20050;-78
2022/09/02 13:25:32;;;;;;;0.20;0.10;;;;;;;25.18;35.58;101367.75;10327051;28;20101;-79
2022/09/02 13:30:47;;;;;;;0.10;0.10;;;;;;;24.91;35.68;101364.09;10336909;28;20405;-78
2022/09/02 13:36:23;;;;;;;0.08;0.08;;;;;;;25.35;36.11;101348.78;10301205;28;20097;-78
2022/09/02 13:41:32;;;;;;;0.03;0.03;;;;;;;25.15;37.58;101352.00;10327105;28;20046;-77
2022/09/02 13:46:41;;;;;;;;;;;;;;;25.11;35.81;101348.56;10336616;28;20054;-77
2022/09/02 13:51:44;;;;;;;1.03;0.40;;;;;;;25.55;34.82;101350.88;10343409;28;19921;-77
2022/09/02 13:56:45;;;;;;;0.20;0.20;;;;;;;24.93;33.81;101342.03;10319213;28;20476;-77
2022/09/02 14:01:47;;;;;;;0.20;0.10;;;;;;;25.24;35.29;101332.44;10349154;28;20054;-77
2022/09/02 14:06:52;;;;;;;0.00;0.00;;;;;;;25.41;33.35;101342.50;10339969;28;20053;-78
2022/09/02 14:11:55;;;;;;;0.55;0.40;;;;;;;25.27;35.24;101325.28;10318826;28;20054;-76
2022/09/02 14:17:16;;;;;;;0.10;0.03;;;;;;;25.54;34.22;101321.91;10326514;28;20102;-76
2022/09/02 14:22:23;;;;;;;0.75;0.10;;;;;;;24.94;34.32;101325.34;10329334;28;20457;-77
2022/09/02 14:27:25;;;;;;;0.08;0.08;;;;;;;24.89;33.53;101319.34;10341683;28;20061;-78
2022/09/02 14:32:27;;;;;;;0.50;0.50;;;;;;;25.38;34.86;101316.19;10333177;28;20046;-77
2022/09/02 14:37:32;;;;;;;0.40;0.30;;;;;;;24.95;34.86;101313.88;10318423;28;20050;-77
2022/09/02 14:42:46;;;;;;;0.10;0.10;;;;;;;25.22;35.56;101298.19;10359529;28;20057;-78
2022/09/02 14:47:55;;;;;;;0.45;0.22;;;;;;;25.47;35.99;101300.13;10355792;28;20050;-75
2022/09/02 14:53:05;;;;;;;0.70;0.10;;;;;;;24.97;34.50;101291.00;10335237;28;20054;-74
2022/09/02 14:58:36;;;;;;;0.70;0.20;;;;;;;25.64;33.98;101292.56;10335082;28;20062;-75
2022/09/02 15:03:40;;;;;;;0.55;0.38;;;;;;;25.66;34.59;101285.44;10346627;28;20054;-75
2022/09/02 15:08:45;;;;;;;4.75;1.30;;;;;;;25.41;33.37;101279.22;10324660;28;20063;-76
2022/09/02 15:13:48;;;;;;;0.35;0.10;;;;;;;25.55;32.40;101277.03;10366269;28;20050;-76
2022/09/02 15:18:50;;;;;;;0.43;0.10;;;;;;;25.57;32.53;101269.94;10367121;28;20077;-76
2022/09/02 15:23:57;;;;;;;0.05;0.00;;;;;;;25.59;33.15;101265.44;10334348;28;20057;-75
2022/09/02 15:28:59;;;;;;;0.52;0.40;;;;;;;25.45;33.00;101265.91;10321749;28;20497;-78
2022/09/02 15:34:08;;;;;;;0.10;0.10;;;;;;;25.35;33.79;101254.72;10356420;28;20043;-77
2022/09/02 15:39:12;;;;;;;0.65;0.30;;;;;;;25.10;33.82;101251.09;10334972;28;20046;-78
2022/09/02 15:44:13;;;;;;;0.00;0.00;;;;;;;24.85;33.16;101254.44;10338464;28;20053;-79
2022/09/02 15:49:24;;;;;;;0.15;0.15;;;;;;;24.99;34.90;101252.25;10308361;28;20058;-78
2022/09/02 15:54:30;;;;;;;0.20;0.08;;;;;;;24.98;35.09;101239.97;10332903;28;20061;-76
2022/09/02 15:59:32;;;;;;;0.32;0.10;;;;;;;24.69;33.85;101236.41;10319341;28;20400;-78
2022/09/02 16:04:33;;;;;;;0.15;0.05;;;;;;;24.81;34.32;101235.22;10319221;28;20046;-76
2022/09/02 16:09:35;;;;;;;0.00;0.00;;;;;;;24.62;34.94;101231.34;10338824;28;20050;-78
2022/09/02 16:14:37;;;;;;;0.30;0.15;;;;;;;24.45;34.88;101223.91;10322557;28;20058;-76
2022/09/02 16:26:22;;;;;;;0.70;0.20;;;;;;;24.49;34.61;101215.00;10299226;28;20047;-77
2022/09/02 16:31:37;;;;;;;0.00;0.00;;;;;;;24.44;34.83;101207.22;10314225;28;20122;-78
2022/09/02 16:36:44;;;;;;;0.35;0.22;;;;;;;24.48;35.55;101198.34;10338125;28;20057;-77
2022/09/02 16:41:48;;;;;;;0.13;0.10;;;;;;;24.43;35.67;101197.59;10316839;28;20482;-77
2022/09/02 16:46:50;;;;;;;0.20;0.10;;;;;;;24.33;35.98;101198.78;10333302;28;20050;-77
2022/09/02 16:51:52;;;;;;;0.00;0.00;;;;;;;24.15;35.26;101194.88;10340609;28;20054;-77
2022/09/02 16:57:00;;;;;;;0.20;0.10;;;;;;;24.01;35.75;101196.09;10320483;28;20054;-78
2022/09/02 17:02:08;;;;;;;1.42;0.28;;;;;;;23.90;36.60;101200.72;10314664;28;20054;-76
2022/09/02 17:14:13;;;;;;;0.17;0.10;;;;;;;22.43;56.72;101196.88;10323637;28;20077;-76
2022/09/02 17:19:22;;;;;;;0.52;0.52;;;;;;;22.38;53.74;101196.06;10321866;28;20501;-77
2022/09/02 17:24:30;;;;;;;0.95;0.43;;;;;;;22.06;56.22;101188.75;10329955;28;20052;-78
2022/09/02 17:29:32;;;;;;;3.78;0.35;;;;;;;21.67;57.43;101189.41;10306612;28;20474;-76
2022/09/02 17:34:50;;;;;;;0.00;0.00;;;;;;;21.15;66.99;101185.78;10311451;28;20117;-75
2022/09/02 17:39:52;;;;;;;0.20;0.20;;;;;;;21.05;63.52;101191.16;10322496;28;20565;-75
2022/09/02 17:44:53;;;;;;;0.00;0.00;;;;;;;20.59;67.29;101183.81;10321478;28;20494;-75
2022/09/02 17:49:55;;;;;;;0.30;0.20;;;;;;;20.33;65.41;101186.72;10326612;28;20062;-74
2022/09/02 17:54:57;;;;;;;0.20;0.15;;;;;;;20.42;63.54;101184.88;10319438;28;20051;-75
2022/09/02 18:00:05;;;;;;;0.45;0.30;;;;;;;20.34;66.26;101181.47;10342315;28;20058;-75
2022/09/02 18:05:15;;;;;;;0.00;0.00;;;;;;;20.05;71.80;101184.38;10336815;28;20101;-75
2022/09/02 18:10:17;;;;;;;0.57;0.10;;;;;;;19.41;75.75;101184.81;10355774;28;20055;-75
2022/09/02 18:16:13;;;;;;;0.30;0.20;;;;;;;19.21;79.50;101187.53;10357025;28;20071;-77
2022/09/02 18:21:40;;;;;;;0.20;0.10;;;;;;;19.06;75.74;101182.41;10346343;28;20055;-80
2022/09/02 18:26:48;;;;;;;0.10;0.10;;;;;;;18.48;83.96;101181.72;10355428;28;20050;-79
2022/09/02 18:32:12;;;;;;;0.17;0.17;;;;;;;17.97;96.86;101180.06;10357933;28;20170;-80
2022/09/02 18:37:44;;;;;;;0.35;0.15;;;;;;;17.57;100.00;101185.19;10314489;28;20062;-80
2022/09/02 18:42:57;;;;;;;0.25;0.20;;;;;;;17.36;100.00;101197.31;10305982;28;20054;-80
2022/09/02 18:48:25;;;;;;;0.20;0.20;;;;;;;17.27;100.00;101202.50;10321449;28;20054;-80
2022/09/02 18:53:35;;;;;;;0.20;0.10;;;;;;;17.10;100.00;101199.84;10334455;28;20402;-79
2022/09/02 18:58:48;;;;;;;0.40;0.22;;;;;;;16.70;100.00;101200.50;10351792;28;20573;-80
2022/09/02 19:03:50;;;;;;;0.77;0.65;;;;;;;16.65;100.00;101202.19;10339356;28;20069;-81
2022/09/02 19:09:07;;;;;;;2.25;0.52;;;;;;;16.52;100.00;101205.59;10324627;28;20433;-80
2022/09/02 19:14:28;;;;;;;0.00;0.00;;;;;;;16.17;100.00;101225.28;10320712;28;20101;-82
2022/09/02 19:19:30;;;;;;;0.15;0.15;;;;;;;16.42;100.00;101221.13;10311765;28;20108;-81
2022/09/02 19:25:01;;;;;;;0.28;0.10;;;;;;;15.96;100.00;101233.78;10310643;28;20050;-82
2022/09/02 19:30:09;;;;;;;0.57;0.20;;;;;;;16.04;100.00;101229.53;10295450;28;20054;-82
2022/09/02 19:35:15;;;;;;;0.20;0.17;;;;;;;16.00;100.00;101238.16;10322865;28;20050;-81
2022/09/02 19:40:23;;;;;;;0.25;0.10;;;;;;;15.88;100.00;101238.03;10331471;28;20616;-81
2022/09/02 19:45:27;;;;;;;0.00;0.00;;;;;;;15.85;100.00;101236.28;10319235;28;20054;-81
2022/09/02 19:50:31;;;;;;;0.30;0.22;;;;;;;16.08;100.00;101238.22;10313076;28;20058;-81
2022/09/02 19:55:34;;;;;;;0.00;0.00;;;;;;;15.59;100.00;101236.00;10314889;28;20416;-79
2022/09/02 20:00:41;;;;;;;0.17;0.13;;;;;;;16.04;100.00;101228.66;10331831;28;20051;-81
2022/09/02 20:05:42;;;;;;;0.22;0.22;;;;;;;16.05;100.00;101228.66;10315459;28;20751;-81
2022/09/02 20:10:55;;;;;;;0.40;0.20;;;;;;;15.75;100.00;101235.28;10307585;28;20532;-81
2022/09/02 20:15:57;;;;;;;0.15;0.15;;;;;;;16.06;100.00;101232.13;10315101;28;20409;-80
2022/09/02 20:20:59;;;;;;;0.30;0.10;;;;;;;15.96;100.00;101233.78;10312264;28;20101;-79
2022/09/02 20:26:24;;;;;;;0.40;0.35;;;;;;;16.40;100.00;101228.06;10311868;28;20494;-80
2022/09/02 20:31:35;;;;;;;1.38;0.20;;;;;;;16.24;100.00;101231.41;10323206;28;20058;-79
2022/09/02 20:36:48;;;;;;;0.22;0.22;;;;;;;16.26;100.00;101233.16;10316065;28;20042;-80
2022/09/02 20:42:30;;;;;;;0.20;0.20;;;;;;;16.23;100.00;101224.47;10328063;28;20057;-80
2022/09/02 20:47:48;;;;;;;2.05;0.95;;;;;;;16.41;100.00;101226.34;10300568;28;20050;-79
2022/09/02 20:52:50;;;;;;;0.38;0.20;;;;;;;16.43;98.67;101217.69;10309310;28;20121;-79
2022/09/02 20:58:16;;;;;;;0.43;0.30;;;;;;;16.50;100.00;101221.19;10292362;28;20112;-79
2022/09/02 21:03:23;;;;;;;0.80;0.17;;;;;;;16.60;97.85;101214.31;10320096;28;20065;-80
2022/09/02 21:08:31;;;;;;;4.35;0.55;;;;;;;16.48;100.00;101205.59;10301324;28;20612;-80
2022/09/02 21:13:38;;;;;;;0.40;0.20;;;;;;;16.68;97.25;101206.56;10309265;28;20059;-80
2022/09/02 21:18:46;;;;;;;0.43;0.20;;;;;;;16.60;100.00;101206.50;10322202;28;20105;-79
2022/09/02 21:23:52;;;;;;;0.20;0.10;;;;;;;16.65;97.30;101207.41;10328677;28;20101;-77
2022/09/02 21:28:59;;;;;;;0.00;0.00;;;;;;;16.63;100.00;101201.34;10302835;28;20058;-77
2022/09/02 21:34:11;;;;;;;0.63;0.20;;;;;;;16.55;100.00;101203.03;10309946;28;20049;-77
2022/09/02 21:39:17;;;;;;;0.10;0.10;;;;;;;16.46;100.00;101196.91;10294306;28;20137;-79
2022/09/02 21:44:26;;;;;;;0.65;0.30;;;;;;;16.72;96.35;101192.72;10321727;28;20078;-78
2022/09/02 21:49:40;;;;;;;0.00;0.00;;;;;;;16.52;100.00;101203.00;10333113;28;20058;-78
2022/09/02 21:55:04;;;;;;;0.47;0.40;;;;;;;16.53;99.77;101196.94;10340065;28;20053;-77
2022/09/02 22:00:08;;;;;;;0.32;0.20;;;;;;;16.34;100.00;101204.63;10340170;28;20054;-78
2022/09/02 22:05:48;;;;;;;0.28;0.15;;;;;;;16.31;100.00;101202.00;10332169;28;20054;-79
2022/09/02 22:10:50;;;;;;;0.03;0.03;;;;;;;16.26;100.00;101203.72;10294777;28;20062;-78
2022/09/02 22:15:58;;;;;;;0.40;0.25;;;;;;;16.22;100.00;101201.94;10314023;28;20046;-79
2022/09/02 22:21:12;;;;;;;0.10;0.10;;;;;;;16.25;100.00;101194.16;10309771;28;20093;-79
2022/09/02 22:27:11;;;;;;;0.10;0.10;;;;;;;16.12;100.00;101199.25;10318114;28;20058;-79
2022/09/02 22:32:20;;;;;;;0.05;0.05;;;;;;;16.10;100.00;101201.00;10256935;28;20089;-79
2022/09/02 22:37:32;;;;;;;0.08;0.03;;;;;;;15.93;100.00;101202.56;10338725;28;20109;-78
2022/09/02 22:42:36;;;;;;;0.20;0.20;;;;;;;15.84;100.00;101193.84;10336804;28;20058;-79
2022/09/02 22:53:06;;;;;;;0.00;0.00;;;;;;;15.82;100.00;101195.50;10307003;28;20386;-78
2022/09/02 22:58:32;;;;;;;0.03;0.03;;;;;;;15.77;100.00;101194.59;10328629;28;20050;-79
2022/09/02 23:03:48;;;;;;;0.32;0.20;;;;;;;15.61;100.00;101188.41;10338059;28;20557;-79
2022/09/02 23:08:54;;;;;;;0.60;0.28;;;;;;;15.65;100.00;101189.31;10303961;28;20054;-79
2022/09/02 23:14:07;;;;;;;0.00;0.00;;;;;;;15.67;100.00;101187.59;10320915;28;20050;-78
2022/09/02 23:20:00;;;;;;;0.38;0.13;;;;;;;15.55;100.00;101178.81;10326700;28;20518;-79
2022/09/02 23:25:33;;;;;;;0.15;0.10;;;;;;;15.42;100.00;101184.75;10187431;29;20459;-79
2022/09/02 23:30:43;;;;;;;0.00;0.00;;;;;;;15.55;100.00;101181.41;10184470;29;20528;-78
2022/09/02 23:36:34;;;;;;;1.33;0.85;;;;;;;15.32;100.00;101176.00;10333022;28;20061;-79
2022/09/02 23:41:36;;;;;;;0.45;0.20;;;;;;;15.25;100.00;101173.31;10312906;28;20054;-78
2022/09/02 23:46:59;;;;;;;0.17;0.13;;;;;;;15.11;100.00;101166.25;10312618;28;20054;-78
2022/09/02 23:52:22;;;;;;;0.08;0.08;;;;;;;15.18;100.00;101170.66;10318381;28;20129;-77
2022/09/02 23:57:44;;;;;;;0.25;0.10;;;;;;;15.04;100.00;101165.28;10315708;28;20062;-78
